Bird City, KS

3:14 PM CST on February 08, 2016 (GMT -0600)
APRSWXNET | | Change Station
CLOSE
Current Station
Personal Weather Station
Location: Bird City, KS
Elevation: 3512 ft
Nearby Weather Stations

Elev 3512 ft 39.76 °N, 101.59 °W | Updated 22 minutes ago

Partly Cloudy
Partly Cloudy
37 °F
Feels Like 27 °F
N
20
Wind Variable Wind from NW
Gusts 25.0 mph

Today
High -- | Low -- °F
--% Chance of Precip.
Yesterday
High -- | Low -- °F
Precip. -- in
Pressure 30.31 in
Visibility 10.0 miles
Clouds Scattered Clouds 7000 ft
Windchill 27 °F
Dew Point 22 °F
Humidity 54%
Rainfall in
Snow Depth Not available.
7:47 AM 6:13 PM
New Moon, 0% visible
METAR KSYF 082055Z AUTO 33013G20KT 10SM SCT070 04/M09 A3031 RMK AO2 T00351086
Pressure 30.31 in
Visibility 10.0 miles
Clouds Scattered Clouds 7000 ft
Windchill 27 °F
Dew Point 22 °F
Humidity 54%
Rainfall in
Snow Depth Not available.
7:47 AM 6:13 PM
New Moon, 0% visible
METAR KSYF 082055Z AUTO 33013G20KT 10SM SCT070 04/M09 A3031 RMK AO2 T00351086

10-Day Weather Forecast

Almanac

Astronomy

Feb. 08, 2016 Rise Set
Actual Time
Civil Twilight
Nautical Twilight
Astronomical Twilight
Moon
Length of Visible Light
Length of Day
Tomorrow will be .
, % of the Moon is Illuminated

Today's Extremes

State Highs State Lows

Community

WunderPhotos

Upload Photos

1,891,516 photos uploaded!

WunderBlog® & News

Nearby

Air Quality

  Air Quality AQ Index Pollutant
Not available.

Snow Depth

Station Depth Elevation

Earthquake Activity

City Distance Mag. Time & Date
Minimum magnitude displayed is 2.5.

Coastal Water Temperatures

Place Temperature

Stations

Nearby Weather Stations

Station Location Temp. Windchill Dew Point Humidity Wind Precip. Elev Updated Type
                   

Watches & Warnings

There are currently no watches in effect.